createdAt,value
2022-08-19T00:02:39.260Z,20.44
2022-08-19T00:06:53.273Z,20.40
2022-08-19T00:10:55.329Z,20.37
2022-08-19T00:14:57.404Z,20.33
2022-08-19T00:18:59.859Z,20.33
2022-08-19T00:23:01.903Z,20.31
2022-08-19T00:27:25.810Z,20.29
2022-08-19T00:31:26.126Z,20.25
2022-08-19T00:35:28.464Z,20.28
2022-08-19T00:39:31.186Z,20.31
2022-08-19T00:43:34.063Z,20.27
2022-08-19T00:47:36.112Z,20.20
2022-08-19T00:51:39.949Z,20.14
2022-08-19T00:55:43.377Z,20.09
2022-08-19T01:00:01.048Z,20.13
2022-08-19T01:04:05.159Z,20.19
2022-08-19T01:08:08.029Z,20.28
2022-08-19T01:12:10.370Z,20.33
2022-08-19T01:16:14.896Z,20.40
2022-08-19T01:20:22.293Z,20.49
2022-08-19T01:24:24.354Z,20.53
2022-08-19T01:28:33.820Z,20.53
2022-08-19T01:32:41.386Z,20.53
2022-08-19T01:36:48.335Z,20.56
2022-08-19T01:40:50.465Z,20.55
2022-08-19T01:44:52.600Z,20.49
2022-08-19T01:48:54.652Z,20.49
2022-08-19T01:53:05.892Z,20.48
2022-08-19T01:57:13.209Z,20.44
2022-08-19T02:01:15.299Z,20.36
2022-08-19T02:05:18.938Z,20.31
2022-08-19T02:09:21.017Z,20.26
2022-08-19T02:13:26.452Z,20.19
2022-08-19T02:17:29.871Z,20.16
2022-08-19T02:21:32.403Z,20.14
2022-08-19T02:25:34.494Z,20.11
2022-08-19T02:29:36.542Z,20.07
2022-08-19T02:33:39.177Z,20.06
2022-08-19T02:38:03.266Z,20.03
2022-08-19T02:42:05.720Z,20.01
2022-08-19T02:46:21.702Z,19.98
2022-08-19T02:50:23.785Z,19.96
2022-08-19T02:54:26.488Z,19.94
2022-08-19T02:58:28.770Z,19.92
2022-08-19T03:02:31.532Z,19.86
2022-08-19T03:06:41.031Z,19.81
2022-08-19T03:10:48.445Z,19.78
2022-08-19T03:14:51.872Z,19.73
2022-08-19T03:18:54.996Z,19.70
2022-08-19T03:22:57.064Z,19.63
2022-08-19T03:26:59.616Z,19.63
2022-08-19T03:31:41.850Z,19.51
2022-08-19T03:35:37.650Z,19.39
2022-08-19T03:39:41.268Z,19.20
2022-08-19T03:43:47.495Z,19.13
2022-08-19T03:47:49.749Z,19.09
2022-08-19T03:51:52.277Z,19.03
2022-08-19T03:55:55.373Z,19.00
2022-08-19T04:00:12.718Z,18.97
2022-08-19T04:04:15.978Z,18.98
2022-08-19T04:08:21.082Z,19.01
2022-08-19T04:12:23.185Z,19.08
2022-08-19T04:16:35.097Z,19.14
2022-08-19T04:20:47.579Z,19.17
2022-08-19T04:24:49.647Z,19.16
2022-08-19T04:28:52.588Z,19.17
2022-08-19T04:32:54.797Z,19.21
2022-08-19T04:36:58.526Z,19.24
2022-08-19T04:41:19.447Z,19.24
2022-08-19T04:45:23.005Z,19.18
2022-08-19T04:49:26.529Z,19.18
2022-08-19T04:53:37.801Z,19.17
2022-08-19T04:57:41.507Z,19.24
2022-08-19T05:01:44.251Z,19.33
2022-08-19T05:05:49.348Z,19.46
2022-08-19T05:09:57.657Z,19.59
2022-08-19T05:14:01.421Z,19.76
2022-08-19T05:18:22.072Z,19.95
2022-08-19T05:22:35.476Z,20.16
2022-08-19T05:26:39.036Z,20.57
2022-08-19T05:30:47.318Z,20.90
2022-08-19T05:34:50.325Z,21.10
2022-08-19T05:38:54.099Z,21.54
2022-08-19T05:42:56.904Z,22.49
2022-08-19T05:47:00.431Z,22.84
2022-08-19T05:51:07.401Z,23.90
2022-08-19T05:55:10.300Z,25.33
2022-08-19T05:59:12.462Z,26.11
2022-08-19T06:03:14.510Z,27.30
2022-08-19T06:07:17.905Z,28.79
2022-08-19T06:11:35.628Z,30.07
2022-08-19T06:15:37.678Z,29.90
2022-08-19T06:19:40.951Z,29.04
2022-08-19T06:23:43.621Z,28.62
2022-08-19T06:28:13.431Z,28.92
2022-08-19T06:32:08.101Z,28.84
2022-08-19T06:36:30.636Z,28.68
2022-08-19T06:40:32.706Z,28.42
2022-08-19T06:44:37.298Z,28.46
2022-08-19T06:48:46.026Z,28.84
2022-08-19T06:52:48.751Z,29.68
2022-08-19T06:56:50.862Z,30.37
2022-08-19T07:00:52.909Z,31.17
2022-08-19T07:04:55.075Z,30.86
2022-08-19T07:08:58.995Z,28.68
2022-08-19T07:13:01.205Z,27.39
2022-08-19T07:17:04.260Z,26.72
2022-08-19T07:21:19.690Z,26.05
2022-08-19T07:25:22.810Z,25.72
2022-08-19T07:29:36.588Z,25.41
2022-08-19T07:33:41.885Z,25.32
2022-08-19T07:37:46.007Z,25.35
2022-08-19T07:41:49.280Z,25.34
2022-08-19T07:45:52.189Z,25.12
2022-08-19T07:49:54.265Z,24.91
2022-08-19T07:53:56.478Z,24.87
2022-08-19T07:57:58.665Z,24.90
2022-08-19T08:02:01.501Z,24.84
2022-08-19T08:06:22.325Z,24.88
2022-08-19T08:10:24.696Z,24.91
2022-08-19T08:14:48.511Z,24.96
2022-08-19T08:18:53.351Z,25.15
2022-08-19T08:23:14.583Z,25.13
2022-08-19T08:27:16.914Z,25.10
2022-08-19T08:31:21.058Z,25.11
2022-08-19T08:35:24.504Z,25.23
2022-08-19T08:39:26.545Z,25.13
2022-08-19T08:43:36.437Z,25.15
2022-08-19T08:47:42.438Z,25.19
2022-08-19T08:51:59.805Z,25.02
2022-08-19T08:56:07.078Z,24.89
2022-08-19T09:00:16.141Z,24.86
2022-08-19T09:04:18.848Z,25.08
2022-08-19T09:08:41.313Z,25.43
2022-08-19T09:12:55.359Z,25.80
2022-08-19T09:17:00.524Z,25.98
2022-08-19T09:21:03.125Z,26.03
2022-08-19T09:25:07.892Z,25.87
2022-08-19T09:29:11.343Z,25.79
2022-08-19T09:33:13.366Z,25.91
2022-08-19T09:37:15.675Z,25.98
2022-08-19T09:41:20.648Z,26.23
2022-08-19T09:45:23.224Z,26.27
2022-08-19T09:49:25.359Z,25.83
2022-08-19T09:53:27.447Z,25.91
2022-08-19T09:57:30.778Z,26.27
2022-08-19T10:01:33.879Z,26.42
2022-08-19T10:05:54.436Z,26.18
2022-08-19T10:09:57.556Z,26.03
2022-08-19T10:14:00.704Z,26.32
2022-08-19T10:18:02.782Z,26.76
2022-08-19T10:22:10.075Z,26.89
2022-08-19T10:26:23.095Z,26.93
2022-08-19T10:30:28.745Z,27.08
2022-08-19T10:34:32.006Z,27.08
2022-08-19T10:38:34.888Z,27.20
2022-08-19T10:42:37.061Z,27.08
2022-08-19T10:46:46.036Z,27.07
2022-08-19T10:51:08.748Z,27.08
2022-08-19T10:55:29.458Z,27.18
2022-08-19T10:59:35.976Z,27.16
2022-08-19T11:03:38.449Z,27.22
2022-08-19T11:07:41.260Z,27.30
2022-08-19T11:11:43.981Z,27.42
2022-08-19T11:15:48.389Z,27.40
2022-08-19T11:19:50.899Z,27.44
2022-08-19T11:23:55.744Z,27.48
2022-08-19T11:27:57.784Z,27.28
2022-08-19T11:32:00.228Z,27.12
2022-08-19T11:36:02.493Z,26.91
2022-08-19T11:40:06.397Z,26.91
2022-08-19T11:44:08.794Z,27.01
2022-08-19T11:48:11.104Z,26.98
2022-08-19T11:52:13.497Z,27.12
2022-08-19T11:56:15.667Z,27.30
2022-08-19T12:00:17.758Z,27.46
2022-08-19T12:04:19.852Z,27.83
2022-08-19T12:08:22.653Z,28.17
2022-08-19T12:12:25.706Z,28.26
2022-08-19T12:16:31.441Z,28.14
2022-08-19T12:20:40.599Z,28.48
2022-08-19T12:24:42.681Z,28.62
2022-08-19T12:28:45.581Z,28.78
2022-08-19T12:32:47.642Z,28.75
2022-08-19T12:36:50.734Z,28.75
2022-08-19T12:40:55.987Z,28.66
2022-08-19T12:45:00.439Z,28.73
2022-08-19T12:49:24.109Z,28.89
2022-08-19T12:53:25.492Z,29.06
2022-08-19T12:57:31.680Z,29.10
2022-08-19T13:01:35.582Z,29.14
2022-08-19T13:05:37.623Z,29.41
2022-08-19T13:09:42.039Z,29.66
2022-08-19T13:13:45.826Z,29.71
2022-08-19T13:17:52.926Z,29.71
2022-08-19T13:22:00.186Z,29.69
2022-08-19T13:26:06.723Z,29.80
2022-08-19T13:30:30.732Z,29.95
2022-08-19T13:34:36.493Z,29.98
2022-08-19T13:38:39.012Z,30.08
2022-08-19T13:42:41.986Z,29.91
2022-08-19T13:46:45.516Z,29.96
2022-08-19T13:50:50.517Z,30.19
2022-08-19T13:54:52.543Z,30.34
2022-08-19T13:58:54.621Z,30.53
2022-08-19T14:02:57.568Z,30.64
2022-08-19T14:06:59.646Z,30.32
2022-08-19T14:11:06.737Z,30.04
2022-08-19T14:15:10.754Z,29.97
2022-08-19T14:19:12.805Z,29.86
2022-08-19T14:23:14.888Z,29.91
2022-08-19T14:27:17.307Z,29.80
2022-08-19T14:31:20.911Z,29.80
2022-08-19T14:35:23.045Z,29.77
2022-08-19T14:39:25.150Z,30.00
2022-08-19T14:43:27.277Z,30.26
2022-08-19T14:47:29.333Z,30.47
2022-08-19T14:51:34.839Z,30.58
2022-08-19T14:55:37.102Z,30.63
2022-08-19T14:59:39.700Z,30.46
2022-08-19T15:03:42.264Z,30.20
2022-08-19T15:07:44.462Z,29.96
2022-08-19T15:11:46.669Z,29.75
2022-08-19T15:15:49.254Z,29.68
2022-08-19T15:19:51.346Z,29.78
2022-08-19T15:23:54.027Z,29.81
2022-08-19T15:27:56.350Z,29.70
2022-08-19T15:31:59.257Z,29.65
2022-08-19T15:36:01.379Z,29.58
2022-08-19T15:40:06.002Z,29.62
2022-08-19T15:44:14.872Z,29.52
2022-08-19T15:48:16.973Z,29.59
2022-08-19T15:52:20.869Z,29.65
2022-08-19T15:56:27.070Z,29.71
2022-08-19T16:00:52.732Z,29.72
2022-08-19T16:05:13.622Z,29.64
2022-08-19T16:09:16.864Z,29.76
2022-08-19T16:13:18.880Z,29.77
2022-08-19T16:17:21.018Z,29.80
2022-08-19T16:21:27.215Z,29.81
2022-08-19T16:25:29.909Z,29.78
2022-08-19T16:29:34.867Z,29.74
2022-08-19T16:33:41.514Z,29.55
2022-08-19T16:37:43.573Z,29.56
2022-08-19T16:41:46.330Z,29.44
2022-08-19T16:45:50.564Z,29.35
2022-08-19T16:49:55.417Z,29.25
2022-08-19T16:53:57.683Z,29.13
2022-08-19T16:58:04.364Z,29.10
2022-08-19T17:02:06.371Z,29.06
2022-08-19T17:06:20.409Z,29.01
2022-08-19T17:10:23.233Z,29.03
2022-08-19T17:14:25.294Z,28.88
2022-08-19T17:18:27.505Z,28.80
2022-08-19T17:22:36.671Z,28.66
2022-08-19T17:26:39.120Z,28.58
2022-08-19T17:30:41.360Z,28.50
2022-08-19T17:34:44.164Z,28.38
2022-08-19T17:38:46.235Z,28.15
2022-08-19T17:42:48.587Z,27.95
2022-08-19T17:46:53.369Z,27.80
2022-08-19T17:50:55.687Z,27.65
2022-08-19T17:54:57.897Z,27.54
2022-08-19T17:59:01.768Z,27.37
2022-08-19T18:03:05.294Z,27.23
2022-08-19T18:07:09.420Z,27.05
2022-08-19T18:11:12.198Z,26.91
2022-08-19T18:15:14.836Z,26.74
2022-08-19T18:19:16.865Z,26.58
2022-08-19T18:23:44.176Z,26.43
2022-08-19T18:27:43.348Z,26.27
2022-08-19T18:31:45.426Z,26.13
2022-08-19T18:35:49.326Z,26.02
2022-08-19T18:40:10.102Z,25.91
2022-08-19T18:44:30.950Z,25.73
2022-08-19T18:48:51.802Z,25.59
2022-08-19T18:52:53.818Z,25.45
2022-08-19T18:56:56.041Z,25.31
2022-08-19T19:00:59.072Z,25.18
2022-08-19T19:05:05.165Z,25.11
2022-08-19T19:09:21.688Z,24.99
2022-08-19T19:13:23.824Z,24.88
2022-08-19T19:17:28.364Z,24.78
2022-08-19T19:21:34.413Z,24.70
2022-08-19T19:25:50.623Z,24.65
2022-08-19T19:29:53.505Z,24.54
2022-08-19T19:33:55.995Z,24.45
2022-08-19T19:37:58.699Z,24.38
2022-08-19T19:42:01.853Z,24.28
2022-08-19T19:46:04.021Z,24.20
2022-08-19T19:50:14.888Z,24.16
2022-08-19T19:54:23.360Z,24.09
2022-08-19T19:58:28.798Z,24.01
2022-08-19T20:02:31.265Z,23.97
2022-08-19T20:06:33.997Z,23.90
2022-08-19T20:10:36.064Z,23.81
2022-08-19T20:14:38.519Z,23.72
2022-08-19T20:18:41.178Z,23.64
2022-08-19T20:22:47.294Z,23.60
2022-08-19T20:26:53.410Z,23.53
2022-08-19T20:30:55.725Z,23.45
2022-08-19T20:34:59.186Z,23.37
2022-08-19T20:39:01.194Z,23.29
2022-08-19T20:43:08.776Z,23.18
2022-08-19T20:47:10.840Z,23.11
2022-08-19T20:51:14.029Z,23.03
2022-08-19T20:55:16.087Z,22.93
2022-08-19T20:59:21.644Z,22.84
2022-08-19T21:03:26.402Z,22.75
2022-08-19T21:07:38.936Z,22.66
2022-08-19T21:11:41.885Z,22.56
2022-08-19T21:15:44.460Z,22.48
2022-08-19T21:19:46.498Z,22.42
2022-08-19T21:23:49.661Z,22.37
2022-08-19T21:27:51.818Z,22.28
2022-08-19T21:31:53.852Z,22.22
2022-08-19T21:35:55.985Z,22.18
2022-08-19T21:39:58.172Z,22.12
2022-08-19T21:44:00.350Z,22.07
2022-08-19T21:48:02.560Z,22.05
2022-08-19T21:52:04.858Z,22.01
2022-08-19T21:56:07.361Z,21.96
2022-08-19T22:00:15.067Z,21.97
2022-08-19T22:04:20.151Z,21.91
2022-08-19T22:08:22.234Z,21.85
2022-08-19T22:12:28.118Z,21.84
2022-08-19T22:16:30.152Z,21.80
2022-08-19T22:20:32.307Z,21.76
2022-08-19T22:24:34.450Z,21.69
2022-08-19T22:28:36.725Z,21.63
2022-08-19T22:32:45.184Z,21.58
2022-08-19T22:36:47.220Z,21.55
2022-08-19T22:40:50.820Z,21.52
2022-08-19T22:44:52.892Z,21.49
2022-08-19T22:49:01.330Z,21.45
2022-08-19T22:53:06.180Z,21.39
2022-08-19T22:57:08.291Z,21.37
2022-08-19T23:01:14.756Z,21.34
2022-08-19T23:05:32.250Z,21.28
2022-08-19T23:09:37.632Z,21.23
2022-08-19T23:13:42.230Z,21.19
2022-08-19T23:17:44.693Z,21.13
2022-08-19T23:21:47.413Z,21.13
2022-08-19T23:25:49.496Z,21.12
2022-08-19T23:30:10.276Z,21.09
2022-08-19T23:34:12.390Z,21.10
2022-08-19T23:38:14.554Z,21.09
2022-08-19T23:42:17.135Z,21.06
2022-08-19T23:46:28.036Z,21.06
2022-08-19T23:50:30.913Z,21.05
2022-08-19T23:54:43.070Z,21.04
2022-08-19T23:58:47.099Z,21.04
